sensor_id;sensor_type;location;lat;lon;timestamp;pressure;altitude;pressure_sealevel;temperature;humidity
48872;BME280;36154;51.674;7.824;2023-07-31T00:00:06;100245.22;;;22.77;54.61
48872;BME280;36154;51.674;7.824;2023-07-31T00:02:34;100247.91;;;22.75;54.40
48872;BME280;36154;51.674;7.824;2023-07-31T00:04:59;100246.31;;;22.71;54.48
48872;BME280;36154;51.674;7.824;2023-07-31T00:07:25;100262.06;;;22.68;54.60
48872;BME280;36154;51.674;7.824;2023-07-31T00:09:50;100260.44;;;22.65;54.90
48872;BME280;36154;51.674;7.824;2023-07-31T00:12:15;100255.31;;;22.64;54.79
48872;BME280;36154;51.674;7.824;2023-07-31T00:14:41;100252.78;;;22.62;55.08
48872;BME280;36154;51.674;7.824;2023-07-31T00:17:06;100256.31;;;22.61;54.86
48872;BME280;36154;51.674;7.824;2023-07-31T00:19:31;100253.69;;;22.61;54.85
48872;BME280;36154;51.674;7.824;2023-07-31T00:21:56;100258.03;;;22.61;54.71
48872;BME280;36154;51.674;7.824;2023-07-31T00:24:22;100263.22;;;22.61;54.75
48872;BME280;36154;51.674;7.824;2023-07-31T00:26:47;100260.69;;;22.59;54.72
48872;BME280;36154;51.674;7.824;2023-07-31T00:29:12;100258.22;;;22.56;54.70
48872;BME280;36154;51.674;7.824;2023-07-31T00:31:38;100253.13;;;22.55;54.67
48872;BME280;36154;51.674;7.824;2023-07-31T00:34:05;100251.44;;;22.53;54.60
48872;BME280;36154;51.674;7.824;2023-07-31T00:36:31;100251.44;;;22.53;54.34
48872;BME280;36154;51.674;7.824;2023-07-31T00:38:56;100253.97;;;22.55;54.55
48872;BME280;36154;51.674;7.824;2023-07-31T00:41:21;100247.06;;;22.54;54.42
48872;BME280;36154;51.674;7.824;2023-07-31T00:43:46;100243.63;;;22.53;54.84
48872;BME280;36154;51.674;7.824;2023-07-31T00:46:12;100247.94;;;22.55;54.27
48872;BME280;36154;51.674;7.824;2023-07-31T00:48:38;100232.34;;;22.55;54.11
48872;BME280;36154;51.674;7.824;2023-07-31T00:51:04;100239.22;;;22.56;53.95
48872;BME280;36154;51.674;7.824;2023-07-31T00:53:29;100236.56;;;22.57;54.10
48872;BME280;36154;51.674;7.824;2023-07-31T00:55:55;100228.69;;;22.59;54.69
48872;BME280;36154;51.674;7.824;2023-07-31T00:58:21;100232.06;;;22.61;54.15
48872;BME280;36154;51.674;7.824;2023-07-31T01:00:46;100230.25;;;22.63;54.25
48872;BME280;36154;51.674;7.824;2023-07-31T01:03:14;100226.75;;;22.64;54.28
48872;BME280;36154;51.674;7.824;2023-07-31T01:05:46;100222.38;;;22.64;54.35
48872;BME280;36154;51.674;7.824;2023-07-31T01:08:33;100218.00;;;22.66;54.01
48872;BME280;36154;51.674;7.824;2023-07-31T01:11:08;100211.94;;;22.66;54.15
48872;BME280;36154;51.674;7.824;2023-07-31T01:13:39;100210.19;;;22.66;54.39
48872;BME280;36154;51.674;7.824;2023-07-31T01:16:06;100215.31;;;22.68;54.23
48872;BME280;36154;51.674;7.824;2023-07-31T01:18:32;100222.19;;;22.69;54.17
48872;BME280;36154;51.674;7.824;2023-07-31T01:21:53;100216.09;;;22.70;54.22
48872;BME280;36154;51.674;7.824;2023-07-31T01:24:04;100211.72;;;22.70;53.84
48872;BME280;36154;51.674;7.824;2023-07-31T01:26:34;100205.63;;;22.71;54.11
48872;BME280;36154;51.674;7.824;2023-07-31T01:29:08;100211.72;;;22.70;53.88
48872;BME280;36154;51.674;7.824;2023-07-31T01:31:36;100209.97;;;22.71;53.85
48872;BME280;36154;51.674;7.824;2023-07-31T01:34:01;100209.06;;;22.72;53.58
48872;BME280;36154;51.674;7.824;2023-07-31T01:36:28;100203.03;;;22.71;54.08
48872;BME280;36154;51.674;7.824;2023-07-31T01:38:59;100202.19;;;22.71;54.03
48872;BME280;36154;51.674;7.824;2023-07-31T01:41:25;100194.38;;;22.71;53.95
48872;BME280;36154;51.674;7.824;2023-07-31T01:43:50;100197.91;;;22.70;53.87
48872;BME280;36154;51.674;7.824;2023-07-31T01:46:16;100185.84;;;22.69;53.83
48872;BME280;36154;51.674;7.824;2023-07-31T01:48:41;100185.84;;;22.69;54.26
48872;BME280;36154;51.674;7.824;2023-07-31T01:51:06;100191.97;;;22.68;54.21
48872;BME280;36154;51.674;7.824;2023-07-31T01:53:32;100189.50;;;22.65;54.18
48872;BME280;36154;51.674;7.824;2023-07-31T01:55:57;100190.38;;;22.64;54.20
48872;BME280;36154;51.674;7.824;2023-07-31T01:58:22;100182.66;;;22.62;54.52
48872;BME280;36154;51.674;7.824;2023-07-31T02:00:48;100194.88;;;22.60;54.60
48872;BME280;36154;51.674;7.824;2023-07-31T02:03:13;100183.66;;;22.60;54.43
48872;BME280;36154;51.674;7.824;2023-07-31T02:05:45;100180.28;;;22.58;54.80
48872;BME280;36154;51.674;7.824;2023-07-31T02:08:11;100176.06;;;22.55;54.40
48872;BME280;36154;51.674;7.824;2023-07-31T02:10:36;100176.06;;;22.55;54.52
48872;BME280;36154;51.674;7.824;2023-07-31T02:13:01;100173.53;;;22.53;54.77
48872;BME280;36154;51.674;7.824;2023-07-31T02:15:29;100177.03;;;22.52;54.80
48872;BME280;36154;51.674;7.824;2023-07-31T02:17:55;100177.03;;;22.52;54.66
48872;BME280;36154;51.674;7.824;2023-07-31T02:20:20;100176.19;;;22.52;54.82
48872;BME280;36154;51.674;7.824;2023-07-31T02:22:45;100171.84;;;22.52;54.62
48872;BME280;36154;51.674;7.824;2023-07-31T02:25:11;100176.28;;;22.50;54.83
48872;BME280;36154;51.674;7.824;2023-07-31T02:27:36;100172.78;;;22.51;54.91
48872;BME280;36154;51.674;7.824;2023-07-31T02:30:02;100176.19;;;22.52;54.69
48872;BME280;36154;51.674;7.824;2023-07-31T02:32:27;100172.78;;;22.51;54.59
48872;BME280;36154;51.674;7.824;2023-07-31T02:34:52;100188.34;;;22.51;54.75
48872;BME280;36154;51.674;7.824;2023-07-31T02:37:17;100176.28;;;22.50;54.64
48872;BME280;36154;51.674;7.824;2023-07-31T02:39:43;100171.97;;;22.49;54.67
48872;BME280;36154;51.674;7.824;2023-07-31T02:42:08;100185.88;;;22.48;54.77
48872;BME280;36154;51.674;7.824;2023-07-31T02:44:33;100166.94;;;22.46;54.66
48872;BME280;36154;51.674;7.824;2023-07-31T02:46:59;100175.63;;;22.45;54.60
48872;BME280;36154;51.674;7.824;2023-07-31T02:49:24;100168.75;;;22.44;54.68
48872;BME280;36154;51.674;7.824;2023-07-31T02:51:49;100173.16;;;22.42;55.00
48872;BME280;36154;51.674;7.824;2023-07-31T02:54:15;100168.91;;;22.41;54.85
48872;BME280;36154;51.674;7.824;2023-07-31T02:56:40;100170.56;;;22.42;54.92
48872;BME280;36154;51.674;7.824;2023-07-31T02:59:06;100161.03;;;22.43;54.63
48872;BME280;36154;51.674;7.824;2023-07-31T03:01:31;100161.03;;;22.43;54.76
48872;BME280;36154;51.674;7.824;2023-07-31T03:03:56;100165.38;;;22.42;54.65
48872;BME280;36154;51.674;7.824;2023-07-31T03:06:22;100156.69;;;22.43;54.71
48872;BME280;36154;51.674;7.824;2023-07-31T03:08:47;100166.22;;;22.43;54.74
48872;BME280;36154;51.674;7.824;2023-07-31T03:11:12;100156.69;;;22.43;54.50
48872;BME280;36154;51.674;7.824;2023-07-31T03:13:38;100159.22;;;22.45;54.48
48872;BME280;36154;51.674;7.824;2023-07-31T03:16:03;100153.16;;;22.44;54.35
48872;BME280;36154;51.674;7.824;2023-07-31T03:18:28;100144.09;;;22.34;54.34
48872;BME280;36154;51.674;7.824;2023-07-31T03:20:54;100155.00;;;22.42;54.33
48872;BME280;36154;51.674;7.824;2023-07-31T03:23:19;100152.47;;;22.41;54.36
48872;BME280;36154;51.674;7.824;2023-07-31T03:26:01;100156.91;;;22.39;54.29
48872;BME280;36154;51.674;7.824;2023-07-31T03:28:26;100168.16;;;22.38;54.52
48872;BME280;36154;51.674;7.824;2023-07-31T03:30:53;100167.34;;;22.37;54.40
48872;BME280;36154;51.674;7.824;2023-07-31T03:33:18;100159.56;;;22.37;54.18
48872;BME280;36154;51.674;7.824;2023-07-31T03:35:44;100155.25;;;22.36;54.30
48872;BME280;36154;51.674;7.824;2023-07-31T03:38:09;100153.59;;;22.35;54.35
48872;BME280;36154;51.674;7.824;2023-07-31T03:40:35;100151.91;;;22.34;54.35
48872;BME280;36154;51.674;7.824;2023-07-31T03:43:00;100153.72;;;22.32;54.15
48872;BME280;36154;51.674;7.824;2023-07-31T03:45:25;100157.22;;;22.31;54.31
48872;BME280;36154;51.674;7.824;2023-07-31T03:47:51;100156.44;;;22.29;54.07
48872;BME280;36154;51.674;7.824;2023-07-31T03:50:16;100154.84;;;22.26;54.08
48872;BME280;36154;51.674;7.824;2023-07-31T03:52:42;100161.69;;;22.27;54.02
48872;BME280;36154;51.674;7.824;2023-07-31T03:55:07;100159.03;;;22.29;54.03
48872;BME280;36154;51.674;7.824;2023-07-31T03:57:33;100146.19;;;22.26;53.76
48872;BME280;36154;51.674;7.824;2023-07-31T03:59:58;100152.31;;;22.25;53.83
48872;BME280;36154;51.674;7.824;2023-07-31T04:02:24;100155.81;;;22.24;53.89
48872;BME280;36154;51.674;7.824;2023-07-31T04:04:49;100153.16;;;22.25;53.83
48872;BME280;36154;51.674;7.824;2023-07-31T04:07:14;100153.97;;;22.26;54.05
48872;BME280;36154;51.674;7.824;2023-07-31T04:09:40;100150.50;;;22.27;53.76
48872;BME280;36154;51.674;7.824;2023-07-31T04:12:05;100140.94;;;22.27;53.66
48872;BME280;36154;51.674;7.824;2023-07-31T04:14:31;100152.19;;;22.28;53.82
48872;BME280;36154;51.674;7.824;2023-07-31T04:16:56;100153.09;;;22.27;53.71
48872;BME280;36154;51.674;7.824;2023-07-31T04:19:21;100153.97;;;22.26;53.91
48872;BME280;36154;51.674;7.824;2023-07-31T04:21:47;100154.03;;;22.24;53.73
48872;BME280;36154;51.674;7.824;2023-07-31T04:24:12;100148.03;;;22.24;53.60
48872;BME280;36154;51.674;7.824;2023-07-31T04:26:37;100155.81;;;22.24;53.59
48872;BME280;36154;51.674;7.824;2023-07-31T04:29:02;100143.75;;;22.23;53.76
48872;BME280;36154;51.674;7.824;2023-07-31T04:31:28;100151.53;;;22.23;53.79
48872;BME280;36154;51.674;7.824;2023-07-31T04:33:53;100145.44;;;22.24;53.67
48872;BME280;36154;51.674;7.824;2023-07-31T04:36:18;100144.53;;;22.25;53.76
48872;BME280;36154;51.674;7.824;2023-07-31T04:38:44;100147.06;;;22.26;53.56
48872;BME280;36154;51.674;7.824;2023-07-31T04:41:09;100142.72;;;22.27;53.45
48872;BME280;36154;51.674;7.824;2023-07-31T04:43:34;100140.09;;;22.27;53.36
48872;BME280;36154;51.674;7.824;2023-07-31T04:45:59;100138.41;;;22.26;53.32
48872;BME280;36154;51.674;7.824;2023-07-31T04:48:25;100137.56;;;22.25;53.67
48872;BME280;36154;51.674;7.824;2023-07-31T04:50:50;100137.50;;;22.27;53.71
48872;BME280;36154;51.674;7.824;2023-07-31T04:53:15;100147.84;;;22.28;53.66
48872;BME280;36154;51.674;7.824;2023-07-31T04:55:40;100138.28;;;22.29;53.40
48872;BME280;36154;51.674;7.824;2023-07-31T04:58:06;100148.66;;;22.29;53.36
48872;BME280;36154;51.674;7.824;2023-07-31T05:00:31;100141.75;;;22.29;53.53
48872;BME280;36154;51.674;7.824;2023-07-31T05:02:57;100139.97;;;22.30;53.53
48872;BME280;36154;51.674;7.824;2023-07-31T05:05:22;100133.09;;;22.29;53.14
48872;BME280;36154;51.674;7.824;2023-07-31T05:07:48;100137.31;;;22.31;53.13
48872;BME280;36154;51.674;7.824;2023-07-31T05:10:13;100131.25;;;22.31;52.96
48872;BME280;36154;51.674;7.824;2023-07-31T05:12:38;100141.66;;;22.31;53.28
48872;BME280;36154;51.674;7.824;2023-07-31T05:15:04;100138.16;;;22.32;53.32
48872;BME280;36154;51.674;7.824;2023-07-31T05:17:29;100136.44;;;22.31;53.28
48872;BME280;36154;51.674;7.824;2023-07-31T05:19:55;100132.13;;;22.31;53.08
48872;BME280;36154;51.674;7.824;2023-07-31T05:22:20;100130.44;;;22.30;53.10
48872;BME280;36154;51.674;7.824;2023-07-31T05:24:45;100133.09;;;22.29;53.01
48872;BME280;36154;51.674;7.824;2023-07-31T05:27:11;100127.91;;;22.29;53.13
48872;BME280;36154;51.674;7.824;2023-07-31T05:29:37;100127.84;;;22.30;53.01
48872;BME280;36154;51.674;7.824;2023-07-31T05:32:03;100126.94;;;22.31;53.26
48872;BME280;36154;51.674;7.824;2023-07-31T05:34:28;100129.47;;;22.33;53.29
48872;BME280;36154;51.674;7.824;2023-07-31T05:36:53;100126.00;;;22.32;53.24
48872;BME280;36154;51.674;7.824;2023-07-31T05:39:18;100120.75;;;22.34;53.25
48872;BME280;36154;51.674;7.824;2023-07-31T05:41:45;100117.25;;;22.35;53.51
48872;BME280;36154;51.674;7.824;2023-07-31T05:44:10;100118.91;;;22.36;53.45
48872;BME280;36154;51.674;7.824;2023-07-31T05:46:35;100106.75;;;22.38;53.35
48872;BME280;36154;51.674;7.824;2023-07-31T05:49:01;100119.66;;;22.40;53.44
48872;BME280;36154;51.674;7.824;2023-07-31T05:51:27;100106.59;;;22.41;53.24
48872;BME280;36154;51.674;7.824;2023-07-31T05:53:52;100115.16;;;22.43;53.74
48872;BME280;36154;51.674;7.824;2023-07-31T05:56:18;100104.78;;;22.43;53.33
48872;BME280;36154;51.674;7.824;2023-07-31T05:58:43;100100.34;;;22.45;53.38
48872;BME280;36154;51.674;7.824;2023-07-31T06:01:08;100109.84;;;22.46;53.59
48872;BME280;36154;51.674;7.824;2023-07-31T06:03:33;100101.13;;;22.47;53.52
48872;BME280;36154;51.674;7.824;2023-07-31T06:05:59;100100.22;;;22.48;53.63
48872;BME280;36154;51.674;7.824;2023-07-31T06:08:24;100099.28;;;22.49;53.61
48872;BME280;36154;51.674;7.824;2023-07-31T06:10:50;100093.19;;;22.50;53.64
48872;BME280;36154;51.674;7.824;2023-07-31T06:13:15;100089.69;;;22.51;53.44
48872;BME280;36154;51.674;7.824;2023-07-31T06:15:40;100083.56;;;22.52;53.41
48872;BME280;36154;51.674;7.824;2023-07-31T06:18:06;100084.28;;;22.56;53.67
48872;BME280;36154;51.674;7.824;2023-07-31T06:20:33;100085.13;;;22.57;53.58
48872;BME280;36154;51.674;7.824;2023-07-31T06:22:59;100086.81;;;22.58;53.48
48872;BME280;36154;51.674;7.824;2023-07-31T06:25:24;100088.50;;;22.59;53.73
48872;BME280;36154;51.674;7.824;2023-07-31T06:27:49;100077.22;;;22.60;53.83
48872;BME280;36154;51.674;7.824;2023-07-31T06:30:15;100070.25;;;22.60;53.56
48872;BME280;36154;51.674;7.824;2023-07-31T06:32:40;100071.09;;;22.61;53.61
48872;BME280;36154;51.674;7.824;2023-07-31T06:35:06;100071.94;;;22.61;53.94
48872;BME280;36154;51.674;7.824;2023-07-31T06:37:31;100063.22;;;22.62;53.93
48872;BME280;36154;51.674;7.824;2023-07-31T06:39:57;100065.75;;;22.64;53.81
48872;BME280;36154;51.674;7.824;2023-07-31T06:42:22;100064.78;;;22.66;53.62
48872;BME280;36154;51.674;7.824;2023-07-31T06:44:47;100067.31;;;22.68;53.91
48872;BME280;36154;51.674;7.824;2023-07-31T06:47:12;100067.31;;;22.68;53.86
48872;BME280;36154;51.674;7.824;2023-07-31T06:49:38;100074.09;;;22.70;53.86
48872;BME280;36154;51.674;7.824;2023-07-31T06:52:03;100079.34;;;22.69;53.97
48872;BME280;36154;51.674;7.824;2023-07-31T06:54:29;100077.53;;;22.71;53.53
48872;BME280;36154;51.674;7.824;2023-07-31T06:56:54;100068.00;;;22.71;53.67
48872;BME280;36154;51.674;7.824;2023-07-31T06:59:19;100070.53;;;22.73;53.63
48872;BME280;36154;51.674;7.824;2023-07-31T07:01:44;100072.19;;;22.74;53.54
48872;BME280;36154;51.674;7.824;2023-07-31T07:04:10;100081.75;;;22.74;53.89
48872;BME280;36154;51.674;7.824;2023-07-31T07:06:35;100086.88;;;22.75;53.98
48872;BME280;36154;51.674;7.824;2023-07-31T07:09:00;100081.69;;;22.75;53.87
48872;BME280;36154;51.674;7.824;2023-07-31T07:11:25;100087.72;;;22.76;53.97
48872;BME280;36154;51.674;7.824;2023-07-31T07:13:51;100085.94;;;22.76;54.15
48872;BME280;36154;51.674;7.824;2023-07-31T07:16:17;100072.97;;;22.76;53.75
48872;BME280;36154;51.674;7.824;2023-07-31T07:18:42;100080.75;;;22.76;53.92
48872;BME280;36154;51.674;7.824;2023-07-31T07:21:07;100078.09;;;22.78;54.01
48872;BME280;36154;51.674;7.824;2023-07-31T07:23:33;100073.75;;;22.78;54.36
48872;BME280;36154;51.674;7.824;2023-07-31T07:25:59;100062.56;;;22.76;54.37
48872;BME280;36154;51.674;7.824;2023-07-31T07:28:24;100070.28;;;22.78;54.20
48872;BME280;36154;51.674;7.824;2023-07-31T07:30:53;100070.22;;;22.79;54.23
48872;BME280;36154;51.674;7.824;2023-07-31T07:33:21;100070.22;;;22.79;54.21
48872;BME280;36154;51.674;7.824;2023-07-31T07:35:46;100063.28;;;22.80;54.28
48872;BME280;36154;51.674;7.824;2023-07-31T07:38:13;100066.72;;;22.80;54.38
48872;BME280;36154;51.674;7.824;2023-07-31T07:40:40;100064.13;;;22.80;54.60
48872;BME280;36154;51.674;7.824;2023-07-31T07:43:06;100070.16;;;22.81;54.58
48872;BME280;36154;51.674;7.824;2023-07-31T07:45:31;100067.50;;;22.82;54.58
48872;BME280;36154;51.674;7.824;2023-07-31T07:47:56;100070.94;;;22.83;54.20
48872;BME280;36154;51.674;7.824;2023-07-31T07:50:22;100069.22;;;22.83;54.62
48872;BME280;36154;51.674;7.824;2023-07-31T07:52:49;100058.00;;;22.81;54.56
48872;BME280;36154;51.674;7.824;2023-07-31T07:55:15;100068.28;;;22.84;54.62
48872;BME280;36154;51.674;7.824;2023-07-31T07:57:40;100064.78;;;22.85;54.70
48872;BME280;36154;51.674;7.824;2023-07-31T08:00:06;100058.75;;;22.85;54.63
48872;BME280;36154;51.674;7.824;2023-07-31T08:02:31;100063.09;;;22.84;54.39
48872;BME280;36154;51.674;7.824;2023-07-31T08:04:57;100064.72;;;22.87;54.38
48872;BME280;36154;51.674;7.824;2023-07-31T08:07:22;100060.34;;;22.87;54.45
48872;BME280;36154;51.674;7.824;2023-07-31T08:09:47;100052.56;;;22.87;54.49
48872;BME280;36154;51.674;7.824;2023-07-31T08:12:13;100054.31;;;22.87;54.71
48872;BME280;36154;51.674;7.824;2023-07-31T08:14:38;100050.88;;;22.86;54.51
48872;BME280;36154;51.674;7.824;2023-07-31T08:17:03;100051.72;;;22.87;54.46
48872;BME280;36154;51.674;7.824;2023-07-31T08:19:29;100042.16;;;22.87;54.50
48872;BME280;36154;51.674;7.824;2023-07-31T08:21:54;100046.53;;;22.87;54.84
48872;BME280;36154;51.674;7.824;2023-07-31T08:24:20;100042.16;;;22.87;54.83
48872;BME280;36154;51.674;7.824;2023-07-31T08:26:45;100037.78;;;22.88;54.64
48872;BME280;36154;51.674;7.824;2023-07-31T08:29:10;100036.91;;;22.89;54.72
48872;BME280;36154;51.674;7.824;2023-07-31T08:31:36;100040.31;;;22.89;54.63
48872;BME280;36154;51.674;7.824;2023-07-31T08:34:01;100045.50;;;22.89;54.48
48872;BME280;36154;51.674;7.824;2023-07-31T08:36:26;100029.94;;;22.89;54.69
48872;BME280;36154;51.674;7.824;2023-07-31T08:38:52;100029.94;;;22.89;54.84
48872;BME280;36154;51.674;7.824;2023-07-31T08:41:17;100041.13;;;22.92;54.42
48872;BME280;36154;51.674;7.824;2023-07-31T08:43:44;100033.31;;;22.92;54.43
48872;BME280;36154;51.674;7.824;2023-07-31T08:46:10;100022.06;;;22.91;54.87
48872;BME280;36154;51.674;7.824;2023-07-31T08:48:37;100017.72;;;22.92;54.72
48872;BME280;36154;51.674;7.824;2023-07-31T08:51:03;100023.75;;;22.92;54.60
48872;BME280;36154;51.674;7.824;2023-07-31T08:53:29;100015.13;;;22.92;55.02
48872;BME280;36154;51.674;7.824;2023-07-31T08:55:54;100009.00;;;22.93;54.82
48872;BME280;36154;51.674;7.824;2023-07-31T08:58:22;100011.59;;;22.93;54.96
48872;BME280;36154;51.674;7.824;2023-07-31T09:00:49;100010.69;;;22.94;54.77
48872;BME280;36154;51.674;7.824;2023-07-31T09:03:17;100002.97;;;22.92;54.70
48872;BME280;36154;51.674;7.824;2023-07-31T09:05:45;100013.31;;;22.94;54.36
48872;BME280;36154;51.674;7.824;2023-07-31T09:08:17;100018.56;;;22.92;54.47
48872;BME280;36154;51.674;7.824;2023-07-31T09:10:44;100012.53;;;22.92;54.13
48872;BME280;36154;51.674;7.824;2023-07-31T09:13:11;100013.38;;;22.92;54.57
48872;BME280;36154;51.674;7.824;2023-07-31T09:15:37;100019.47;;;22.91;54.55
48872;BME280;36154;51.674;7.824;2023-07-31T09:18:04;100017.72;;;22.92;54.77
48872;BME280;36154;51.674;7.824;2023-07-31T09:20:30;100018.72;;;22.89;54.45
48872;BME280;36154;51.674;7.824;2023-07-31T09:22:57;100017.13;;;22.86;54.79
48872;BME280;36154;51.674;7.824;2023-07-31T09:25:29;100014.59;;;22.85;54.96
48872;BME280;36154;51.674;7.824;2023-07-31T09:27:58;100020.69;;;22.84;55.00
48872;BME280;36154;51.674;7.824;2023-07-31T09:30:24;100021.53;;;22.84;54.98
48872;BME280;36154;51.674;7.824;2023-07-31T09:32:51;100012.81;;;22.85;54.90
48872;BME280;36154;51.674;7.824;2023-07-31T09:35:29;100020.56;;;22.87;55.13
48872;BME280;36154;51.674;7.824;2023-07-31T09:38:19;100018.72;;;22.89;54.95
48872;BME280;36154;51.674;7.824;2023-07-31T09:40:48;100021.22;;;22.91;54.94
48872;BME280;36154;51.674;7.824;2023-07-31T09:43:18;100006.47;;;22.91;54.82
48872;BME280;36154;51.674;7.824;2023-07-31T09:45:44;100011.59;;;22.93;54.83
48872;BME280;36154;51.674;7.824;2023-07-31T09:48:15;100014.97;;;22.95;54.69
48872;BME280;36154;51.674;7.824;2023-07-31T09:50:43;100001.97;;;22.95;54.60
48872;BME280;36154;51.674;7.824;2023-07-31T09:53:09;100006.25;;;22.96;54.71
48872;BME280;36154;51.674;7.824;2023-07-31T09:55:36;100004.50;;;22.96;54.45
48872;BME280;36154;51.674;7.824;2023-07-31T09:58:08;99994.97;;;22.97;54.57
48872;BME280;36154;51.674;7.824;2023-07-31T10:00:34;100008.72;;;22.99;54.42
48872;BME280;36154;51.674;7.824;2023-07-31T10:03:02;100005.22;;;23.00;54.61
48872;BME280;36154;51.674;7.824;2023-07-31T10:05:38;99986.09;;;23.01;54.65
48872;BME280;36154;51.674;7.824;2023-07-31T10:08:06;99993.13;;;22.99;54.70
48872;BME280;36154;51.674;7.824;2023-07-31T10:10:32;99993.88;;;23.01;54.28
48872;BME280;36154;51.674;7.824;2023-07-31T10:13:00;99990.31;;;23.03;54.56
48872;BME280;36154;51.674;7.824;2023-07-31T10:15:27;99991.13;;;23.04;54.27
48872;BME280;36154;51.674;7.824;2023-07-31T10:17:53;99989.31;;;23.06;54.54
48872;BME280;36154;51.674;7.824;2023-07-31T10:20:20;99977.25;;;23.05;54.23
48872;BME280;36154;51.674;7.824;2023-07-31T10:22:46;99980.59;;;23.07;54.37
48872;BME280;36154;51.674;7.824;2023-07-31T10:25:12;99979.66;;;23.08;54.06
48872;BME280;36154;51.674;7.824;2023-07-31T10:27:38;99989.16;;;23.09;54.43
48872;BME280;36154;51.674;7.824;2023-07-31T10:30:06;99983.97;;;23.09;54.30
48872;BME280;36154;51.674;7.824;2023-07-31T10:32:33;99986.47;;;23.11;54.27
48872;BME280;36154;51.674;7.824;2023-07-31T10:34:58;99983.81;;;23.12;54.40
48872;BME280;36154;51.674;7.824;2023-07-31T10:37:28;99977.78;;;23.12;54.05
48872;BME280;36154;51.674;7.824;2023-07-31T10:42:45;99984.56;;;23.14;53.95
48872;BME280;36154;51.674;7.824;2023-07-31T10:45:12;99971.56;;;23.14;54.16
48872;BME280;36154;51.674;7.824;2023-07-31T10:47:45;99974.94;;;23.16;54.05
48872;BME280;36154;51.674;7.824;2023-07-31T10:52:48;99963.03;;;23.12;54.21
48872;BME280;36154;51.674;7.824;2023-07-31T10:55:16;99968.81;;;23.17;54.07
48872;BME280;36154;51.674;7.824;2023-07-31T10:57:46;99969.66;;;23.18;54.00
48872;BME280;36154;51.674;7.824;2023-07-31T11:00:23;99963.69;;;23.16;54.21
48872;BME280;36154;51.674;7.824;2023-07-31T11:03:00;99961.03;;;23.17;54.27
48872;BME280;36154;51.674;7.824;2023-07-31T11:08:20;99961.94;;;23.16;54.47
48872;BME280;36154;51.674;7.824;2023-07-31T11:10:47;99955.16;;;23.14;54.51
48872;BME280;36154;51.674;7.824;2023-07-31T11:13:13;99960.34;;;23.14;54.41
48872;BME280;36154;51.674;7.824;2023-07-31T11:15:39;99965.53;;;23.14;54.26
48872;BME280;36154;51.674;7.824;2023-07-31T11:18:05;99960.34;;;23.14;54.21
48872;BME280;36154;51.674;7.824;2023-07-31T11:20:36;99963.03;;;23.12;54.42
48872;BME280;36154;51.674;7.824;2023-07-31T11:23:03;99965.63;;;23.12;54.21
48872;BME280;36154;51.674;7.824;2023-07-31T11:25:30;99956.88;;;23.13;54.45
48872;BME280;36154;51.674;7.824;2023-07-31T11:27:57;99960.34;;;23.14;54.23
48872;BME280;36154;51.674;7.824;2023-07-31T11:30:22;99964.53;;;23.16;54.36
48872;BME280;36154;51.674;7.824;2023-07-31T11:32:49;99967.06;;;23.18;54.30
48872;BME280;36154;51.674;7.824;2023-07-31T11:35:15;99960.94;;;23.19;54.55
48872;BME280;36154;51.674;7.824;2023-07-31T11:37:44;99961.72;;;23.21;54.68
48872;BME280;36154;51.674;7.824;2023-07-31T11:40:11;99966.06;;;23.20;54.55
48872;BME280;36154;51.674;7.824;2023-07-31T11:42:36;99956.50;;;23.21;54.25
48872;BME280;36154;51.674;7.824;2023-07-31T11:45:05;99949.47;;;23.23;54.18
48872;BME280;36154;51.674;7.824;2023-07-31T11:47:34;99946.78;;;23.24;54.09
48872;BME280;36154;51.674;7.824;2023-07-31T11:50:01;99952.75;;;23.26;54.36
48872;BME280;36154;51.674;7.824;2023-07-31T11:52:28;99944.94;;;23.26;54.60
48872;BME280;36154;51.674;7.824;2023-07-31T11:54:55;99951.84;;;23.27;54.52
48872;BME280;36154;51.674;7.824;2023-07-31T11:57:21;99952.66;;;23.28;54.47
48872;BME280;36154;51.674;7.824;2023-07-31T11:59:48;99953.53;;;23.29;54.19
48872;BME280;36154;51.674;7.824;2023-07-31T12:02:13;99945.66;;;23.30;54.37
48872;BME280;36154;51.674;7.824;2023-07-31T12:04:39;99950.06;;;23.28;54.49
48872;BME280;36154;51.674;7.824;2023-07-31T12:07:05;99952.50;;;23.31;54.26
48872;BME280;36154;51.674;7.824;2023-07-31T12:09:30;99939.44;;;23.33;54.43
48872;BME280;36154;51.674;7.824;2023-07-31T12:11:56;99948.94;;;23.34;54.45
48872;BME280;36154;51.674;7.824;2023-07-31T12:14:23;99926.44;;;23.33;54.39
48872;BME280;36154;51.674;7.824;2023-07-31T12:16:54;99929.88;;;23.33;54.02
48872;BME280;36154;51.674;7.824;2023-07-31T12:19:19;99938.47;;;23.35;54.24
48872;BME280;36154;51.674;7.824;2023-07-31T12:21:45;99934.00;;;23.37;54.29
48872;BME280;36154;51.674;7.824;2023-07-31T12:24:10;99937.44;;;23.38;54.32
48872;BME280;36154;51.674;7.824;2023-07-31T12:26:35;99931.41;;;23.37;54.22
48872;BME280;36154;51.674;7.824;2023-07-31T12:29:01;99946.00;;;23.40;54.23
48872;BME280;36154;51.674;7.824;2023-07-31T12:31:28;99932.09;;;23.41;54.23
48872;BME280;36154;51.674;7.824;2023-07-31T12:33:55;99932.09;;;23.41;53.95
48872;BME280;36154;51.674;7.824;2023-07-31T12:36:23;99938.03;;;23.43;54.41
48872;BME280;36154;51.674;7.824;2023-07-31T12:38:52;99929.34;;;23.44;54.28
48872;BME280;36154;51.674;7.824;2023-07-31T12:41:18;99934.47;;;23.45;53.99
48872;BME280;36154;51.674;7.824;2023-07-31T12:43:44;99925.72;;;23.47;53.97
48872;BME280;36154;51.674;7.824;2023-07-31T12:46:10;99926.41;;;23.50;53.62
48872;BME280;36154;51.674;7.824;2023-07-31T12:48:37;99921.03;;;23.53;53.74
48872;BME280;36154;51.674;7.824;2023-07-31T12:51:03;99924.44;;;23.55;54.06
48872;BME280;36154;51.674;7.824;2023-07-31T12:53:29;99920.09;;;23.56;53.79
48872;BME280;36154;51.674;7.824;2023-07-31T12:55:56;99926.09;;;23.56;53.76